sensor_id;sensor_type;location;lat;lon;timestamp;temperature;humidity
49236;DHT22;35067;48.134;8.378;2023-04-01T00:00:37;5.20;99.90
49236;DHT22;35067;48.134;8.378;2023-04-01T00:01:42;5.20;99.90
49236;DHT22;35067;48.134;8.378;2023-04-01T00:02:48;5.20;99.90
49236;DHT22;35067;48.134;8.378;2023-04-01T00:03:54;5.10;99.90
49236;DHT22;35067;48.134;8.378;2023-04-01T00:05:00;5.10;99.90
49236;DHT22;35067;48.134;8.378;2023-04-01T00:06:03;5.10;99.90
49236;DHT22;35067;48.134;8.378;2023-04-01T00:07:09;5.10;99.90
49236;DHT22;35067;48.134;8.378;2023-04-01T00:08:16;5.10;99.90
49236;DHT22;35067;48.134;8.378;2023-04-01T00:09:22;5.10;99.90
49236;DHT22;35067;48.134;8.378;2023-04-01T00:10:27;5.10;99.90
49236;DHT22;35067;48.134;8.378;2023-04-01T00:11:33;5.10;99.90
49236;DHT22;35067;48.134;8.378;2023-04-01T00:12:39;5.00;99.90
49236;DHT22;35067;48.134;8.378;2023-04-01T00:13:46;5.10;99.90
49236;DHT22;35067;48.134;8.378;2023-04-01T00:14:52;5.10;99.90
49236;DHT22;35067;48.134;8.378;2023-04-01T00:15:58;5.10;99.90
49236;DHT22;35067;48.134;8.378;2023-04-01T00:17:03;5.10;99.90
49236;DHT22;35067;48.134;8.378;2023-04-01T00:18:08;5.10;99.90
49236;DHT22;35067;48.134;8.378;2023-04-01T00:19:14;5.00;99.90
49236;DHT22;35067;48.134;8.378;2023-04-01T00:20:20;5.00;99.90
49236;DHT22;35067;48.134;8.378;2023-04-01T00:21:26;5.00;99.90
49236;DHT22;35067;48.134;8.378;2023-04-01T00:22:32;5.00;99.90
49236;DHT22;35067;48.134;8.378;2023-04-01T00:23:39;5.00;99.90
49236;DHT22;35067;48.134;8.378;2023-04-01T00:24:44;5.00;99.90
49236;DHT22;35067;48.134;8.378;2023-04-01T00:25:50;5.00;99.90
49236;DHT22;35067;48.134;8.378;2023-04-01T00:26:56;5.00;99.90
49236;DHT22;35067;48.134;8.378;2023-04-01T00:28:02;5.00;99.90
49236;DHT22;35067;48.134;8.378;2023-04-01T00:29:03;5.00;99.90
49236;DHT22;35067;48.134;8.378;2023-04-01T00:30:09;5.00;99.90
49236;DHT22;35067;48.134;8.378;2023-04-01T00:31:15;5.00;99.90
49236;DHT22;35067;48.134;8.378;2023-04-01T00:32:21;5.00;99.90
49236;DHT22;35067;48.134;8.378;2023-04-01T00:33:26;5.00;99.90
49236;DHT22;35067;48.134;8.378;2023-04-01T00:34:32;5.00;99.90
49236;DHT22;35067;48.134;8.378;2023-04-01T00:35:38;5.00;99.90
49236;DHT22;35067;48.134;8.378;2023-04-01T00:36:44;5.00;99.90
49236;DHT22;35067;48.134;8.378;2023-04-01T00:37:50;5.00;99.90
49236;DHT22;35067;48.134;8.378;2023-04-01T00:38:57;5.10;99.90
49236;DHT22;35067;48.134;8.378;2023-04-01T00:40:06;5.10;99.90
49236;DHT22;35067;48.134;8.378;2023-04-01T00:41:10;5.00;99.90
49236;DHT22;35067;48.134;8.378;2023-04-01T00:42:19;4.90;99.90
49236;DHT22;35067;48.134;8.378;2023-04-01T00:43:25;4.90;99.90
49236;DHT22;35067;48.134;8.378;2023-04-01T00:44:33;4.90;99.90
49236;DHT22;35067;48.134;8.378;2023-04-01T00:45:42;4.90;99.90
49236;DHT22;35067;48.134;8.378;2023-04-01T00:46:48;4.90;99.90
49236;DHT22;35067;48.134;8.378;2023-04-01T00:47:55;4.90;99.90
49236;DHT22;35067;48.134;8.378;2023-04-01T00:49:02;5.00;99.90
49236;DHT22;35067;48.134;8.378;2023-04-01T00:50:04;4.90;99.90
49236;DHT22;35067;48.134;8.378;2023-04-01T00:51:16;4.90;99.90
49236;DHT22;35067;48.134;8.378;2023-04-01T00:52:25;4.90;99.90
49236;DHT22;35067;48.134;8.378;2023-04-01T00:53:32;4.90;99.90
49236;DHT22;35067;48.134;8.378;2023-04-01T00:54:43;4.90;99.90
49236;DHT22;35067;48.134;8.378;2023-04-01T00:55:59;4.90;99.90
49236;DHT22;35067;48.134;8.378;2023-04-01T00:57:12;4.90;99.90
49236;DHT22;35067;48.134;8.378;2023-04-01T00:58:21;4.90;99.90
49236;DHT22;35067;48.134;8.378;2023-04-01T00:59:42;5.00;99.90
49236;DHT22;35067;48.134;8.378;2023-04-01T01:00:50;5.00;99.90
49236;DHT22;35067;48.134;8.378;2023-04-01T01:01:56;5.00;99.90
49236;DHT22;35067;48.134;8.378;2023-04-01T01:03:02;5.10;99.90
49236;DHT22;35067;48.134;8.378;2023-04-01T01:04:04;5.00;99.90
49236;DHT22;35067;48.134;8.378;2023-04-01T01:05:12;5.10;99.90
49236;DHT22;35067;48.134;8.378;2023-04-01T01:08:01;5.10;99.90
49236;DHT22;35067;48.134;8.378;2023-04-01T01:10:39;5.10;99.90
49236;DHT22;35067;48.134;8.378;2023-04-01T01:11:48;5.20;99.90
49236;DHT22;35067;48.134;8.378;2023-04-01T01:16:00;5.20;99.90
49236;DHT22;35067;48.134;8.378;2023-04-01T01:18:02;5.20;99.90
49236;DHT22;35067;48.134;8.378;2023-04-01T01:22:56;5.20;99.90
49236;DHT22;35067;48.134;8.378;2023-04-01T01:24:42;5.20;99.90
49236;DHT22;35067;48.134;8.378;2023-04-01T01:27:07;5.10;99.90
49236;DHT22;35067;48.134;8.378;2023-04-01T01:31:53;5.10;99.90
49236;DHT22;35067;48.134;8.378;2023-04-01T01:33:14;5.10;99.90
49236;DHT22;35067;48.134;8.378;2023-04-01T01:35:50;5.00;99.90
49236;DHT22;35067;48.134;8.378;2023-04-01T01:37:01;5.00;99.90
49236;DHT22;35067;48.134;8.378;2023-04-01T01:38:33;5.00;99.90
49236;DHT22;35067;48.134;8.378;2023-04-01T01:39:39;5.00;99.90
49236;DHT22;35067;48.134;8.378;2023-04-01T01:40:50;5.00;99.90
49236;DHT22;35067;48.134;8.378;2023-04-01T01:42:03;5.00;99.90
49236;DHT22;35067;48.134;8.378;2023-04-01T01:43:12;5.10;99.90
49236;DHT22;35067;48.134;8.378;2023-04-01T01:44:21;5.00;99.90
49236;DHT22;35067;48.134;8.378;2023-04-01T01:45:28;5.00;99.90
49236;DHT22;35067;48.134;8.378;2023-04-01T01:46:35;5.00;99.90
49236;DHT22;35067;48.134;8.378;2023-04-01T01:47:41;5.00;99.90
49236;DHT22;35067;48.134;8.378;2023-04-01T01:48:49;5.00;99.90
49236;DHT22;35067;48.134;8.378;2023-04-01T01:49:56;5.20;99.90
49236;DHT22;35067;48.134;8.378;2023-04-01T01:51:05;5.20;99.90
49236;DHT22;35067;48.134;8.378;2023-04-01T01:52:09;5.20;99.90
49236;DHT22;35067;48.134;8.378;2023-04-01T01:53:16;5.10;99.90
49236;DHT22;35067;48.134;8.378;2023-04-01T01:54:22;5.10;99.90
49236;DHT22;35067;48.134;8.378;2023-04-01T01:55:36;5.00;99.90
49236;DHT22;35067;48.134;8.378;2023-04-01T01:56:46;5.00;99.90
49236;DHT22;35067;48.134;8.378;2023-04-01T01:57:56;4.90;99.90
49236;DHT22;35067;48.134;8.378;2023-04-01T01:59:08;4.80;99.90
49236;DHT22;35067;48.134;8.378;2023-04-01T02:00:16;4.80;99.90
49236;DHT22;35067;48.134;8.378;2023-04-01T02:01:25;4.80;99.90
49236;DHT22;35067;48.134;8.378;2023-04-01T02:02:32;4.80;99.90
49236;DHT22;35067;48.134;8.378;2023-04-01T02:03:39;4.90;99.90
49236;DHT22;35067;48.134;8.378;2023-04-01T02:04:46;4.90;99.90
49236;DHT22;35067;48.134;8.378;2023-04-01T02:05:55;4.90;99.90
49236;DHT22;35067;48.134;8.378;2023-04-01T02:07:04;4.90;99.90
49236;DHT22;35067;48.134;8.378;2023-04-01T02:08:16;4.90;99.90
49236;DHT22;35067;48.134;8.378;2023-04-01T02:09:26;5.00;99.90
49236;DHT22;35067;48.134;8.378;2023-04-01T02:10:36;5.00;99.90
49236;DHT22;35067;48.134;8.378;2023-04-01T02:11:48;5.00;99.90
49236;DHT22;35067;48.134;8.378;2023-04-01T02:13:00;5.00;99.90
49236;DHT22;35067;48.134;8.378;2023-04-01T02:14:11;5.00;99.90
49236;DHT22;35067;48.134;8.378;2023-04-01T02:15:21;5.00;99.90
49236;DHT22;35067;48.134;8.378;2023-04-01T02:16:40;5.10;99.90
49236;DHT22;35067;48.134;8.378;2023-04-01T02:17:59;5.10;99.90
49236;DHT22;35067;48.134;8.378;2023-04-01T02:19:05;5.10;99.90
49236;DHT22;35067;48.134;8.378;2023-04-01T02:20:21;5.10;99.90
49236;DHT22;35067;48.134;8.378;2023-04-01T02:21:31;5.10;99.90
49236;DHT22;35067;48.134;8.378;2023-04-01T02:22:41;5.10;99.90
49236;DHT22;35067;48.134;8.378;2023-04-01T02:23:50;5.10;99.90
49236;DHT22;35067;48.134;8.378;2023-04-01T02:25:07;5.10;99.90
49236;DHT22;35067;48.134;8.378;2023-04-01T02:26:10;5.10;99.90
49236;DHT22;35067;48.134;8.378;2023-04-01T02:27:16;5.10;99.90
49236;DHT22;35067;48.134;8.378;2023-04-01T02:28:23;5.10;99.90
49236;DHT22;35067;48.134;8.378;2023-04-01T02:29:31;5.10;99.90
49236;DHT22;35067;48.134;8.378;2023-04-01T02:30:38;5.10;99.90
49236;DHT22;35067;48.134;8.378;2023-04-01T02:31:45;5.10;99.90
49236;DHT22;35067;48.134;8.378;2023-04-01T02:32:51;5.00;99.90
49236;DHT22;35067;48.134;8.378;2023-04-01T02:33:58;5.10;99.90
49236;DHT22;35067;48.134;8.378;2023-04-01T02:35:06;5.10;99.90
49236;DHT22;35067;48.134;8.378;2023-04-01T02:36:17;5.10;99.90
49236;DHT22;35067;48.134;8.378;2023-04-01T02:37:23;5.10;99.90
49236;DHT22;35067;48.134;8.378;2023-04-01T02:38:29;5.20;99.90
49236;DHT22;35067;48.134;8.378;2023-04-01T02:39:34;5.30;99.90
49236;DHT22;35067;48.134;8.378;2023-04-01T02:40:43;5.30;99.90
49236;DHT22;35067;48.134;8.378;2023-04-01T02:41:50;5.30;99.90
49236;DHT22;35067;48.134;8.378;2023-04-01T02:42:56;5.30;99.90
49236;DHT22;35067;48.134;8.378;2023-04-01T02:44:01;5.20;99.90
49236;DHT22;35067;48.134;8.378;2023-04-01T02:45:04;5.20;99.90
49236;DHT22;35067;48.134;8.378;2023-04-01T02:46:08;5.10;99.90
49236;DHT22;35067;48.134;8.378;2023-04-01T02:47:14;5.10;99.90
49236;DHT22;35067;48.134;8.378;2023-04-01T02:48:20;5.10;99.90
49236;DHT22;35067;48.134;8.378;2023-04-01T02:49:26;5.10;99.90
49236;DHT22;35067;48.134;8.378;2023-04-01T02:50:31;5.10;99.90
49236;DHT22;35067;48.134;8.378;2023-04-01T02:51:37;5.20;99.90
49236;DHT22;35067;48.134;8.378;2023-04-01T02:52:43;5.10;99.90
49236;DHT22;35067;48.134;8.378;2023-04-01T02:53:49;5.20;99.90
49236;DHT22;35067;48.134;8.378;2023-04-01T02:54:55;5.20;99.90
49236;DHT22;35067;48.134;8.378;2023-04-01T02:56:02;5.20;99.90
49236;DHT22;35067;48.134;8.378;2023-04-01T02:57:03;5.10;99.90
49236;DHT22;35067;48.134;8.378;2023-04-01T02:58:09;5.10;99.90
49236;DHT22;35067;48.134;8.378;2023-04-01T02:59:15;5.20;99.90
49236;DHT22;35067;48.134;8.378;2023-04-01T03:00:21;5.20;99.90
49236;DHT22;35067;48.134;8.378;2023-04-01T03:01:27;5.20;99.90
49236;DHT22;35067;48.134;8.378;2023-04-01T03:02:32;5.10;99.90
49236;DHT22;35067;48.134;8.378;2023-04-01T03:03:38;5.10;99.90
49236;DHT22;35067;48.134;8.378;2023-04-01T03:04:44;5.10;99.90
49236;DHT22;35067;48.134;8.378;2023-04-01T03:05:50;5.10;99.90
49236;DHT22;35067;48.134;8.378;2023-04-01T03:06:55;5.10;99.90
49236;DHT22;35067;48.134;8.378;2023-04-01T03:08:02;5.10;99.90
49236;DHT22;35067;48.134;8.378;2023-04-01T03:09:03;5.10;99.90
49236;DHT22;35067;48.134;8.378;2023-04-01T03:10:06;5.10;99.90
49236;DHT22;35067;48.134;8.378;2023-04-01T03:11:10;5.10;99.90
49236;DHT22;35067;48.134;8.378;2023-04-01T03:12:16;5.20;99.90
49236;DHT22;35067;48.134;8.378;2023-04-01T03:13:21;5.20;99.90
49236;DHT22;35067;48.134;8.378;2023-04-01T03:14:27;5.30;99.90
49236;DHT22;35067;48.134;8.378;2023-04-01T03:15:33;5.20;99.90
49236;DHT22;35067;48.134;8.378;2023-04-01T03:16:38;5.10;99.90
49236;DHT22;35067;48.134;8.378;2023-04-01T03:17:44;5.10;99.90
49236;DHT22;35067;48.134;8.378;2023-04-01T03:18:51;5.00;99.90
49236;DHT22;35067;48.134;8.378;2023-04-01T03:19:57;5.00;99.90
49236;DHT22;35067;48.134;8.378;2023-04-01T03:22:20;5.00;99.90
49236;DHT22;35067;48.134;8.378;2023-04-01T03:23:26;5.00;99.90
49236;DHT22;35067;48.134;8.378;2023-04-01T03:24:32;5.00;99.90
49236;DHT22;35067;48.134;8.378;2023-04-01T03:25:37;5.00;99.90
49236;DHT22;35067;48.134;8.378;2023-04-01T03:26:43;5.00;99.90
49236;DHT22;35067;48.134;8.378;2023-04-01T03:27:49;4.90;99.90
49236;DHT22;35067;48.134;8.378;2023-04-01T03:28:55;4.90;99.90
49236;DHT22;35067;48.134;8.378;2023-04-01T03:30:03;4.80;99.90
49236;DHT22;35067;48.134;8.378;2023-04-01T03:31:10;4.80;99.90
49236;DHT22;35067;48.134;8.378;2023-04-01T03:32:16;4.80;99.90
49236;DHT22;35067;48.134;8.378;2023-04-01T03:33:21;4.80;99.90
49236;DHT22;35067;48.134;8.378;2023-04-01T03:34:27;4.70;99.90
49236;DHT22;35067;48.134;8.378;2023-04-01T03:35:33;4.60;99.90
49236;DHT22;35067;48.134;8.378;2023-04-01T03:36:41;4.60;99.90
49236;DHT22;35067;48.134;8.378;2023-04-01T03:37:46;4.50;99.90
49236;DHT22;35067;48.134;8.378;2023-04-01T03:38:52;4.50;99.90
49236;DHT22;35067;48.134;8.378;2023-04-01T03:39:58;4.50;99.90
49236;DHT22;35067;48.134;8.378;2023-04-01T03:41:04;4.50;99.90
49236;DHT22;35067;48.134;8.378;2023-04-01T03:42:09;4.50;99.90
49236;DHT22;35067;48.134;8.378;2023-04-01T03:43:15;4.50;99.90
49236;DHT22;35067;48.134;8.378;2023-04-01T03:44:21;4.50;99.90
49236;DHT22;35067;48.134;8.378;2023-04-01T03:45:27;4.60;99.90
49236;DHT22;35067;48.134;8.378;2023-04-01T03:46:33;4.60;99.90
49236;DHT22;35067;48.134;8.378;2023-04-01T03:47:39;4.60;99.90
49236;DHT22;35067;48.134;8.378;2023-04-01T03:48:45;4.50;99.90
49236;DHT22;35067;48.134;8.378;2023-04-01T03:49:51;4.50;99.90
49236;DHT22;35067;48.134;8.378;2023-04-01T03:50:57;4.50;99.90
49236;DHT22;35067;48.134;8.378;2023-04-01T03:52:02;4.50;99.90
49236;DHT22;35067;48.134;8.378;2023-04-01T03:53:04;4.50;99.90
49236;DHT22;35067;48.134;8.378;2023-04-01T03:54:10;4.50;99.90
49236;DHT22;35067;48.134;8.378;2023-04-01T03:55:16;4.50;99.90
49236;DHT22;35067;48.134;8.378;2023-04-01T03:56:23;4.50;99.90
49236;DHT22;35067;48.134;8.378;2023-04-01T03:57:31;4.50;99.90
49236;DHT22;35067;48.134;8.378;2023-04-01T03:58:37;4.50;99.90
49236;DHT22;35067;48.134;8.378;2023-04-01T03:59:44;4.50;99.90
49236;DHT22;35067;48.134;8.378;2023-04-01T04:00:49;4.50;99.90
49236;DHT22;35067;48.134;8.378;2023-04-01T04:01:55;4.50;99.90
49236;DHT22;35067;48.134;8.378;2023-04-01T04:03:01;4.50;99.90
49236;DHT22;35067;48.134;8.378;2023-04-01T04:04:04;4.50;99.90
49236;DHT22;35067;48.134;8.378;2023-04-01T04:05:09;4.50;99.90
49236;DHT22;35067;48.134;8.378;2023-04-01T04:06:17;4.50;99.90
49236;DHT22;35067;48.134;8.378;2023-04-01T04:07:24;4.50;99.90
49236;DHT22;35067;48.134;8.378;2023-04-01T04:08:29;4.60;99.90
49236;DHT22;35067;48.134;8.378;2023-04-01T04:09:35;4.60;99.90
49236;DHT22;35067;48.134;8.378;2023-04-01T04:10:41;4.60;99.90
49236;DHT22;35067;48.134;8.378;2023-04-01T04:11:48;4.70;99.90
49236;DHT22;35067;48.134;8.378;2023-04-01T04:12:55;4.60;99.90
49236;DHT22;35067;48.134;8.378;2023-04-01T04:14:01;4.60;99.90
49236;DHT22;35067;48.134;8.378;2023-04-01T04:15:05;4.60;99.90
49236;DHT22;35067;48.134;8.378;2023-04-01T04:16:10;4.50;99.90
49236;DHT22;35067;48.134;8.378;2023-04-01T04:17:16;4.50;99.90
49236;DHT22;35067;48.134;8.378;2023-04-01T04:18:21;4.50;99.90
49236;DHT22;35067;48.134;8.378;2023-04-01T04:19:32;4.50;99.90
49236;DHT22;35067;48.134;8.378;2023-04-01T04:20:44;4.50;99.90
49236;DHT22;35067;48.134;8.378;2023-04-01T04:21:52;4.60;99.90
49236;DHT22;35067;48.134;8.378;2023-04-01T04:22:58;4.60;99.90
49236;DHT22;35067;48.134;8.378;2023-04-01T04:24:04;4.60;99.90
49236;DHT22;35067;48.134;8.378;2023-04-01T04:25:09;4.60;99.90
49236;DHT22;35067;48.134;8.378;2023-04-01T04:26:15;4.60;99.90
49236;DHT22;35067;48.134;8.378;2023-04-01T04:27:21;4.60;99.90
49236;DHT22;35067;48.134;8.378;2023-04-01T04:28:27;4.70;99.90
49236;DHT22;35067;48.134;8.378;2023-04-01T04:29:33;4.60;99.90
49236;DHT22;35067;48.134;8.378;2023-04-01T04:30:39;4.60;99.90
49236;DHT22;35067;48.134;8.378;2023-04-01T04:31:45;4.70;99.90
49236;DHT22;35067;48.134;8.378;2023-04-01T04:32:51;4.70;99.90
49236;DHT22;35067;48.134;8.378;2023-04-01T04:33:59;4.70;99.90
49236;DHT22;35067;48.134;8.378;2023-04-01T04:35:04;4.70;99.90
49236;DHT22;35067;48.134;8.378;2023-04-01T04:36:09;4.70;99.90
49236;DHT22;35067;48.134;8.378;2023-04-01T04:37:15;4.70;99.90
49236;DHT22;35067;48.134;8.378;2023-04-01T04:38:20;4.80;99.90
49236;DHT22;35067;48.134;8.378;2023-04-01T04:39:26;4.70;99.90
49236;DHT22;35067;48.134;8.378;2023-04-01T04:40:32;4.70;99.90
49236;DHT22;35067;48.134;8.378;2023-04-01T04:41:38;4.70;99.90
49236;DHT22;35067;48.134;8.378;2023-04-01T04:42:43;4.80;99.90
49236;DHT22;35067;48.134;8.378;2023-04-01T04:43:54;4.80;99.90
49236;DHT22;35067;48.134;8.378;2023-04-01T04:45:00;4.90;99.90
49236;DHT22;35067;48.134;8.378;2023-04-01T04:46:09;4.80;99.90
49236;DHT22;35067;48.134;8.378;2023-04-01T04:47:15;4.80;99.90
49236;DHT22;35067;48.134;8.378;2023-04-01T04:48:21;4.70;99.90
49236;DHT22;35067;48.134;8.378;2023-04-01T04:49:27;4.70;99.90
49236;DHT22;35067;48.134;8.378;2023-04-01T04:50:32;4.70;99.90
49236;DHT22;35067;48.134;8.378;2023-04-01T04:51:38;4.70;99.90
49236;DHT22;35067;48.134;8.378;2023-04-01T04:52:44;4.70;99.90
49236;DHT22;35067;48.134;8.378;2023-04-01T04:53:50;4.80;99.90
49236;DHT22;35067;48.134;8.378;2023-04-01T04:54:56;4.80;99.90
49236;DHT22;35067;48.134;8.378;2023-04-01T04:56:02;4.80;99.90
49236;DHT22;35067;48.134;8.378;2023-04-01T04:57:04;4.80;99.90
49236;DHT22;35067;48.134;8.378;2023-04-01T04:58:09;4.70;99.90
49236;DHT22;35067;48.134;8.378;2023-04-01T04:59:15;4.70;99.90
49236;DHT22;35067;48.134;8.378;2023-04-01T05:00:21;4.80;99.90
49236;DHT22;35067;48.134;8.378;2023-04-01T05:01:27;4.70;99.90
49236;DHT22;35067;48.134;8.378;2023-04-01T05:02:33;4.70;99.90
49236;DHT22;35067;48.134;8.378;2023-04-01T05:03:40;4.80;99.90
49236;DHT22;35067;48.134;8.378;2023-04-01T05:04:45;4.80;99.90
49236;DHT22;35067;48.134;8.378;2023-04-01T05:05:53;4.80;99.90
49236;DHT22;35067;48.134;8.378;2023-04-01T05:06:58;4.90;99.90
49236;DHT22;35067;48.134;8.378;2023-04-01T05:08:04;4.80;99.90
49236;DHT22;35067;48.134;8.378;2023-04-01T05:09:09;4.80;99.90
49236;DHT22;35067;48.134;8.378;2023-04-01T05:10:15;4.80;99.90
49236;DHT22;35067;48.134;8.378;2023-04-01T05:11:21;4.80;99.90
49236;DHT22;35067;48.134;8.378;2023-04-01T05:12:26;4.80;99.90
49236;DHT22;35067;48.134;8.378;2023-04-01T05:13:32;4.80;99.90
49236;DHT22;35067;48.134;8.378;2023-04-01T05:14:38;4.80;99.90
49236;DHT22;35067;48.134;8.378;2023-04-01T05:15:44;4.70;99.90
49236;DHT22;35067;48.134;8.378;2023-04-01T05:16:50;4.70;99.90
49236;DHT22;35067;48.134;8.378;2023-04-01T05:17:55;4.80;99.90
49236;DHT22;35067;48.134;8.378;2023-04-01T05:19:01;4.80;99.90
49236;DHT22;35067;48.134;8.378;2023-04-01T05:20:05;4.80;99.90
49236;DHT22;35067;48.134;8.378;2023-04-01T05:21:11;4.80;99.90
49236;DHT22;35067;48.134;8.378;2023-04-01T05:22:18;4.80;99.90
49236;DHT22;35067;48.134;8.378;2023-04-01T05:23:24;4.80;99.90
49236;DHT22;35067;48.134;8.378;2023-04-01T05:24:30;4.90;99.90
49236;DHT22;35067;48.134;8.378;2023-04-01T05:25:37;4.90;99.90
49236;DHT22;35067;48.134;8.378;2023-04-01T05:26:43;4.90;99.90
49236;DHT22;35067;48.134;8.378;2023-04-01T05:27:49;4.90;99.90
49236;DHT22;35067;48.134;8.378;2023-04-01T05:28:55;4.90;99.90
49236;DHT22;35067;48.134;8.378;2023-04-01T05:30:01;5.00;99.90
49236;DHT22;35067;48.134;8.378;2023-04-01T05:31:05;5.00;99.90
49236;DHT22;35067;48.134;8.378;2023-04-01T05:32:09;5.00;99.90
49236;DHT22;35067;48.134;8.378;2023-04-01T05:33:15;5.00;99.90
49236;DHT22;35067;48.134;8.378;2023-04-01T05:34:20;5.00;99.90
49236;DHT22;35067;48.134;8.378;2023-04-01T05:35:26;5.00;99.90
49236;DHT22;35067;48.134;8.378;2023-04-01T05:36:32;5.00;99.90
49236;DHT22;35067;48.134;8.378;2023-04-01T05:37:38;5.00;99.90
49236;DHT22;35067;48.134;8.378;2023-04-01T05:38:43;5.00;99.90
49236;DHT22;35067;48.134;8.378;2023-04-01T05:39:51;5.00;99.90
49236;DHT22;35067;48.134;8.378;2023-04-01T05:41:01;5.00;99.90
49236;DHT22;35067;48.134;8.378;2023-04-01T05:42:07;5.00;99.90
49236;DHT22;35067;48.134;8.378;2023-04-01T05:43:09;4.90;99.90
49236;DHT22;35067;48.134;8.378;2023-04-01T05:44:15;5.00;99.90
49236;DHT22;35067;48.134;8.378;2023-04-01T05:45:21;5.00;99.90
49236;DHT22;35067;48.134;8.378;2023-04-01T05:46:27;5.00;99.90
49236;DHT22;35067;48.134;8.378;2023-04-01T05:47:32;5.00;99.90
49236;DHT22;35067;48.134;8.378;2023-04-01T05:48:38;4.90;99.90
49236;DHT22;35067;48.134;8.378;2023-04-01T05:49:44;4.90;99.90
49236;DHT22;35067;48.134;8.378;2023-04-01T05:50:50;5.00;99.90
49236;DHT22;35067;48.134;8.378;2023-04-01T05:51:56;5.00;99.90
49236;DHT22;35067;48.134;8.378;2023-04-01T05:53:02;5.00;99.90
49236;DHT22;35067;48.134;8.378;2023-04-01T05:54:05;5.00;99.90
49236;DHT22;35067;48.134;8.378;2023-04-01T05:55:09;4.80;99.90
49236;DHT22;35067;48.134;8.378;2023-04-01T05:56:15;5.10;99.90
49236;DHT22;35067;48.134;8.378;2023-04-01T05:57:21;5.10;99.90
49236;DHT22;35067;48.134;8.378;2023-04-01T05:58:26;5.10;99.90
49236;DHT22;35067;48.134;8.378;2023-04-01T05:59:32;5.10;99.90
49236;DHT22;35067;48.134;8.378;2023-04-01T06:00:40;5.10;99.90
49236;DHT22;35067;48.134;8.378;2023-04-01T06:01:45;5.10;99.90
49236;DHT22;35067;48.134;8.378;2023-04-01T06:02:51;5.10;99.90
49236;DHT22;35067;48.134;8.378;2023-04-01T06:03:57;5.10;99.90
49236;DHT22;35067;48.134;8.378;2023-04-01T06:05:18;5.10;99.90
49236;DHT22;35067;48.134;8.378;2023-04-01T06:06:28;5.10;99.90
49236;DHT22;35067;48.134;8.378;2023-04-01T06:07:36;5.10;99.90
49236;DHT22;35067;48.134;8.378;2023-04-01T06:08:42;5.10;99.90
49236;DHT22;35067;48.134;8.378;2023-04-01T06:09:48;5.20;99.90
49236;DHT22;35067;48.134;8.378;2023-04-01T06:16:53;5.30;99.90
49236;DHT22;35067;48.134;8.378;2023-04-01T06:20:04;5.40;99.90
49236;DHT22;35067;48.134;8.378;2023-04-01T06:27:45;5.30;99.90
49236;DHT22;35067;48.134;8.378;2023-04-01T06:30:43;5.30;99.90
49236;DHT22;35067;48.134;8.378;2023-04-01T06:33:58;5.30;99.90
49236;DHT22;35067;48.134;8.378;2023-04-01T06:35:43;5.40;99.90
49236;DHT22;35067;48.134;8.378;2023-04-01T06:37:20;5.30;99.90
49236;DHT22;35067;48.134;8.378;2023-04-01T06:41:58;5.20;99.90
49236;DHT22;35067;48.134;8.378;2023-04-01T06:46:31;5.20;99.90
49236;DHT22;35067;48.134;8.378;2023-04-01T06:54:05;5.10;99.90
49236;DHT22;35067;48.134;8.378;2023-04-01T06:55:27;5.10;99.90
49236;DHT22;35067;48.134;8.378;2023-04-01T06:56:48;5.10;99.90
49236;DHT22;35067;48.134;8.378;2023-04-01T06:57:58;5.10;99.90
49236;DHT22;35067;48.134;8.378;2023-04-01T06:59:13;5.10;99.90
49236;DHT22;35067;48.134;8.378;2023-04-01T07:00:49;5.10;99.90
49236;DHT22;35067;48.134;8.378;2023-04-01T07:02:06;5.20;99.90
49236;DHT22;35067;48.134;8.378;2023-04-01T07:04:46;5.20;99.90
49236;DHT22;35067;48.134;8.378;2023-04-01T07:05:56;5.10;99.90
49236;DHT22;35067;48.134;8.378;2023-04-01T07:07:31;5.20;99.90
49236;DHT22;35067;48.134;8.378;2023-04-01T07:08:41;5.20;99.90
49236;DHT22;35067;48.134;8.378;2023-04-01T07:09:55;5.20;99.90
49236;DHT22;35067;48.134;8.378;2023-04-01T07:11:06;5.20;99.90
49236;DHT22;35067;48.134;8.378;2023-04-01T07:13:45;5.10;99.90
49236;DHT22;35067;48.134;8.378;2023-04-01T07:14:56;5.20;99.90
49236;DHT22;35067;48.134;8.378;2023-04-01T07:16:21;5.20;99.90
49236;DHT22;35067;48.134;8.378;2023-04-01T07:17:33;5.10;99.90
49236;DHT22;35067;48.134;8.378;2023-04-01T07:18:50;5.10;99.90
49236;DHT22;35067;48.134;8.378;2023-04-01T07:21:04;5.10;99.90
49236;DHT22;35067;48.134;8.378;2023-04-01T07:23:44;5.10;99.90
49236;DHT22;35067;48.134;8.378;2023-04-01T07:24:51;5.10;99.90
49236;DHT22;35067;48.134;8.378;2023-04-01T07:26:11;5.10;99.90
49236;DHT22;35067;48.134;8.378;2023-04-01T07:27:23;5.10;99.90
49236;DHT22;35067;48.134;8.378;2023-04-01T07:28:30;5.10;99.90
49236;DHT22;35067;48.134;8.378;2023-04-01T07:29:39;5.10;99.90
49236;DHT22;35067;48.134;8.378;2023-04-01T07:31:07;5.00;99.90
49236;DHT22;35067;48.134;8.378;2023-04-01T07:32:52;5.10;99.90
49236;DHT22;35067;48.134;8.378;2023-04-01T07:34:19;5.20;99.90
49236;DHT22;35067;48.134;8.378;2023-04-01T07:37:00;5.10;99.90
49236;DHT22;35067;48.134;8.378;2023-04-01T07:41:38;5.20;99.90
49236;DHT22;35067;48.134;8.378;2023-04-01T07:49:57;5.30;99.90
49236;DHT22;35067;48.134;8.378;2023-04-01T07:51:12;5.30;99.90
49236;DHT22;35067;48.134;8.378;2023-04-01T07:56:05;5.30;99.90
49236;DHT22;35067;48.134;8.378;2023-04-01T07:57:23;5.30;99.90
49236;DHT22;35067;48.134;8.378;2023-04-01T07:58:52;5.30;99.90
49236;DHT22;35067;48.134;8.378;2023-04-01T08:06:00;5.40;99.90
49236;DHT22;35067;48.134;8.378;2023-04-01T08:07:15;5.40;99.90
49236;DHT22;35067;48.134;8.378;2023-04-01T08:08:39;5.40;99.90
49236;DHT22;35067;48.134;8.378;2023-04-01T08:10:11;5.40;99.90
49236;DHT22;35067;48.134;8.378;2023-04-01T08:11:41;5.50;99.90
49236;DHT22;35067;48.134;8.378;2023-04-01T08:18:56;5.60;99.90
49236;DHT22;35067;48.134;8.378;2023-04-01T08:20:44;5.50;99.90
49236;DHT22;35067;48.134;8.378;2023-04-01T08:21:57;5.60;99.90
49236;DHT22;35067;48.134;8.378;2023-04-01T08:23:22;5.60;99.90
49236;DHT22;35067;48.134;8.378;2023-04-01T08:24:33;5.60;99.90
49236;DHT22;35067;48.134;8.378;2023-04-01T08:25:56;5.70;99.90
49236;DHT22;35067;48.134;8.378;2023-04-01T08:27:15;5.80;99.90
49236;DHT22;35067;48.134;8.378;2023-04-01T08:29:02;5.80;99.90
49236;DHT22;35067;48.134;8.378;2023-04-01T08:30:25;5.80;99.90
49236;DHT22;35067;48.134;8.378;2023-04-01T08:33:00;5.80;99.90
49236;DHT22;35067;48.134;8.378;2023-04-01T08:34:45;5.80;99.90
49236;DHT22;35067;48.134;8.378;2023-04-01T08:36:15;5.80;99.90
49236;DHT22;35067;48.134;8.378;2023-04-01T08:37:28;5.70;99.90
49236;DHT22;35067;48.134;8.378;2023-04-01T08:38:50;5.70;99.90
49236;DHT22;35067;48.134;8.378;2023-04-01T08:42:02;5.80;99.90
49236;DHT22;35067;48.134;8.378;2023-04-01T09:07:45;6.00;99.90
49236;DHT22;35067;48.134;8.378;2023-04-01T09:14:45;5.80;99.90
49236;DHT22;35067;48.134;8.378;2023-04-01T09:16:10;5.90;99.90
49236;DHT22;35067;48.134;8.378;2023-04-01T09:17:45;6.00;99.90
49236;DHT22;35067;48.134;8.378;2023-04-01T09:23:08;5.90;99.90
49236;DHT22;35067;48.134;8.378;2023-04-01T09:35:49;6.30;99.90